Time;durP1;ratioP1;P1;durP2;ratioP2;P2;SDS_P1;SDS_P2;PMS_P1;PMS_P2;Temp;Humidity;BMP_temperature;BMP_pressure;BME280_temperature;BME280_humidity;BME280_pressure;Samples;Min_cycle;Max_cycle;Signal;HPM_P1;HPM_P2
2022/09/14 00:00:35;;;;;;;4.30;1.40;;;17.60;99.90;;;;;;5029526;28;20219;-53
2022/09/14 00:03:02;;;;;;;2.80;1.10;;;17.60;99.90;;;;;;5033951;28;20332;-52
2022/09/14 00:05:29;;;;;;;10.17;1.93;;;17.50;99.90;;;;;;5030268;28;20832;-53
2022/09/14 00:07:56;;;;;;;4.60;1.80;;;17.50;99.90;;;;;;5027240;28;20253;-53
2022/09/14 00:10:22;;;;;;;4.07;1.30;;;17.40;99.90;;;;;;5028196;28;20187;-52
2022/09/14 00:12:49;;;;;;;5.73;1.40;;;17.50;99.90;;;;;;5030688;28;20204;-52
2022/09/14 00:15:16;;;;;;;5.30;1.40;;;17.50;99.90;;;;;;5030755;28;20660;-53
2022/09/14 00:17:43;;;;;;;4.63;1.57;;;17.40;99.90;;;;;;5028641;28;20206;-53
2022/09/14 00:20:10;;;;;;;8.40;2.13;;;17.30;99.90;;;;;;5028162;28;20213;-53
2022/09/14 00:22:37;;;;;;;2.87;1.37;;;17.30;99.90;;;;;;5029973;28;20214;-53
2022/09/14 00:25:05;;;;;;;6.60;1.83;;;17.40;99.90;;;;;;5033414;28;20210;-53
2022/09/14 00:27:32;;;;;;;2.80;1.17;;;17.40;99.90;;;;;;5025035;28;20230;-52
2022/09/14 00:29:59;;;;;;;5.60;2.13;;;17.40;99.90;;;;;;5021814;28;20754;-52
2022/09/14 00:32:25;;;;;;;4.13;1.33;;;17.40;99.90;;;;;;5027955;28;20906;-52
2022/09/14 00:34:52;;;;;;;3.80;1.10;;;17.40;99.90;;;;;;5028374;28;20221;-52
2022/09/14 00:37:19;;;;;;;2.83;1.17;;;17.30;99.90;;;;;;5029868;28;20203;-52
2022/09/14 00:39:47;;;;;;;6.30;1.40;;;17.40;99.90;;;;;;5028499;28;20209;-51
2022/09/14 00:42:18;;;;;;;7.73;1.50;;;17.50;99.90;;;;;;5028496;28;20213;-52
2022/09/14 00:44:44;;;;;;;6.50;1.53;;;17.50;99.90;;;;;;5026643;28;20230;-51
2022/09/14 00:47:12;;;;;;;5.37;1.43;;;17.40;99.90;;;;;;5028063;28;20215;-52
2022/09/14 00:49:41;;;;;;;4.90;2.00;;;17.30;99.90;;;;;;5025380;28;20201;-51
2022/09/14 00:52:18;;;;;;;3.97;1.73;;;17.30;99.90;;;;;;5030094;28;20199;-52
2022/09/14 00:54:57;;;;;;;5.27;1.27;;;17.30;99.90;;;;;;5031743;28;20605;-51
2022/09/14 00:57:30;;;;;;;7.67;1.67;;;17.20;99.90;;;;;;5025942;28;20214;-52
2022/09/14 00:59:57;;;;;;;5.10;1.50;;;17.20;99.90;;;;;;5028793;28;20671;-52
2022/09/14 01:02:27;;;;;;;3.23;1.20;;;17.30;99.90;;;;;;5030558;28;20224;-52
2022/09/14 01:04:54;;;;;;;5.23;2.63;;;17.20;99.90;;;;;;5027567;28;20765;-52
2022/09/14 01:07:40;;;;;;;3.53;1.10;;;17.20;99.90;;;;;;5030412;28;20565;-52
2022/09/14 01:10:33;;;;;;;4.83;1.77;;;17.10;99.90;;;;;;5029807;28;20736;-52
2022/09/14 01:13:03;;;;;;;3.63;1.10;;;17.10;99.90;;;;;;5028933;28;20215;-52
2022/09/14 01:15:37;;;;;;;4.03;1.27;;;17.20;99.90;;;;;;5025424;28;20201;-52
2022/09/14 01:18:07;;;;;;;5.20;1.20;;;17.20;99.90;;;;;;5032330;28;20203;-53
2022/09/14 01:20:39;;;;;;;4.63;1.20;;;17.20;99.90;;;;;;5030249;28;20197;-53
2022/09/14 01:23:24;;;;;;;5.10;1.27;;;17.20;99.90;;;;;;5030704;28;20207;-53
2022/09/14 01:26:33;;;;;;;5.90;1.47;;;17.20;99.90;;;;;;5025800;28;20197;-53
2022/09/14 01:29:28;;;;;;;7.23;1.30;;;16.90;99.90;;;;;;5026305;28;20205;-53
2022/09/14 01:32:04;;;;;;;2.33;1.30;;;16.60;99.90;;;;;;5022656;28;20215;-53
2022/09/14 01:34:44;;;;;;;6.70;1.33;;;16.50;99.90;;;;;;5024060;28;20196;-53
2022/09/14 01:37:17;;;;;;;3.73;1.30;;;16.60;99.90;;;;;;5024006;28;20192;-53
2022/09/14 01:40:00;;;;;;;5.73;1.23;;;16.60;99.90;;;;;;5024127;28;20192;-53
2022/09/14 01:42:28;;;;;;;3.77;1.20;;;16.40;99.90;;;;;;5023616;28;20655;-53
2022/09/14 01:45:00;;;;;;;5.43;1.80;;;16.40;99.90;;;;;;5025269;28;20205;-53
2022/09/14 01:47:31;;;;;;;3.90;1.57;;;16.50;99.90;;;;;;5025947;28;20219;-53
2022/09/14 01:50:27;;;;;;;3.27;1.67;;;16.40;99.90;;;;;;5025611;28;20290;-52
2022/09/14 01:53:04;;;;;;;8.60;1.70;;;16.30;99.90;;;;;;5027450;28;20200;-52
2022/09/14 01:55:43;;;;;;;5.73;1.53;;;16.40;99.90;;;;;;5025070;28;20214;-52
2022/09/14 01:58:31;;;;;;;3.33;1.60;;;16.50;99.90;;;;;;5026409;28;20214;-53
2022/09/14 02:01:01;;;;;;;5.67;1.50;;;16.40;99.90;;;;;;5024084;28;20233;-53
2022/09/14 02:03:35;;;;;;;3.03;1.50;;;16.50;99.90;;;;;;5024966;28;20237;-53
2022/09/14 02:06:15;;;;;;;6.63;1.63;;;16.50;99.90;;;;;;5040215;28;20563;-53
2022/09/14 02:08:41;;;;;;;5.03;1.73;;;16.60;99.90;;;;;;5025114;28;20283;-53
2022/09/14 02:11:08;;;;;;;3.87;1.60;;;16.40;99.90;;;;;;5024818;28;20195;-53
2022/09/14 02:13:35;;;;;;;5.50;1.53;;;16.40;99.90;;;;;;5026306;28;20196;-53
2022/09/14 02:16:02;;;;;;;4.47;1.63;;;16.40;99.90;;;;;;5024815;28;20568;-53
2022/09/14 02:18:30;;;;;;;7.40;1.47;;;16.50;99.90;;;;;;5023996;28;20235;-52
2022/09/14 02:21:06;;;;;;;4.00;1.47;;;16.50;99.90;;;;;;5026177;28;20232;-53
2022/09/14 02:23:34;;;;;;;4.50;1.77;;;16.60;99.90;;;;;;5022515;28;20666;-52
2022/09/14 02:26:01;;;;;;;5.50;1.93;;;16.50;99.90;;;;;;5020514;28;20197;-53
2022/09/14 02:28:28;;;;;;;4.73;1.60;;;16.50;99.90;;;;;;5024184;28;20216;-52
2022/09/14 02:31:22;;;;;;;6.50;1.87;;;16.50;99.90;;;;;;5022662;28;20201;-52
2022/09/14 02:34:07;;;;;;;7.00;1.73;;;16.60;99.90;;;;;;5023016;28;20283;-51
2022/09/14 02:36:45;;;;;;;5.03;1.77;;;16.60;99.90;;;;;;5024323;28;21452;-53
2022/09/14 02:39:22;;;;;;;5.57;1.70;;;16.50;99.90;;;;;;5025214;28;20654;-53
2022/09/14 02:42:07;;;;;;;6.50;1.83;;;16.60;99.90;;;;;;5022842;28;20197;-52
2022/09/14 02:44:41;;;;;;;4.67;1.83;;;16.60;99.90;;;;;;5025936;28;20193;-52
2022/09/14 02:47:37;;;;;;;4.33;2.50;;;16.50;99.90;;;;;;5022124;28;20366;-53
2022/09/14 02:50:28;;;;;;;2.77;1.53;;;16.30;99.90;;;;;;5019751;28;20660;-53
2022/09/14 02:53:23;;;;;;;4.73;1.70;;;16.40;99.90;;;;;;5022693;28;20208;-53
2022/09/14 02:55:56;;;;;;;4.80;1.93;;;16.50;99.90;;;;;;5024619;28;20201;-52
2022/09/14 02:58:22;;;;;;;6.17;2.13;;;16.50;99.90;;;;;;5025270;28;20208;-52
2022/09/14 03:00:50;;;;;;;4.40;1.77;;;16.40;99.90;;;;;;5025445;28;20230;-53
2022/09/14 03:03:20;;;;;;;7.47;1.77;;;16.40;99.90;;;;;;5021401;28;20239;-53
2022/09/14 03:05:47;;;;;;;4.40;1.97;;;16.40;99.90;;;;;;5025458;28;20204;-53
2022/09/14 03:08:14;;;;;;;7.07;2.27;;;16.40;99.90;;;;;;5022735;28;20679;-53
2022/09/14 03:10:42;;;;;;;3.50;1.80;;;16.60;99.90;;;;;;5022116;28;20193;-52
2022/09/14 03:13:10;;;;;;;4.40;2.10;;;16.50;99.90;;;;;;5023111;28;20221;-52
2022/09/14 03:15:37;;;;;;;6.73;2.20;;;16.50;99.90;;;;;;5021326;28;20646;-53
2022/09/14 03:18:05;;;;;;;4.40;1.63;;;16.40;99.90;;;;;;5021968;28;20216;-53
2022/09/14 03:20:38;;;;;;;6.80;2.33;;;16.40;99.90;;;;;;5019628;28;20213;-53
2022/09/14 03:23:07;;;;;;;8.23;2.60;;;16.30;99.90;;;;;;5020399;28;20782;-51
2022/09/14 03:25:40;;;;;;;3.27;1.97;;;16.50;99.90;;;;;;5023320;28;20262;-51
2022/09/14 03:28:08;;;;;;;6.20;2.43;;;16.40;99.90;;;;;;5018344;28;21228;-52
2022/09/14 03:30:35;;;;;;;6.63;2.77;;;16.40;99.90;;;;;;5019225;28;20197;-52
2022/09/14 03:33:02;;;;;;;3.97;1.90;;;16.40;99.90;;;;;;5023191;28;20660;-52
2022/09/14 03:35:30;;;;;;;7.43;2.50;;;16.50;99.90;;;;;;5020976;28;20298;-52
2022/09/14 03:37:58;;;;;;;4.33;2.13;;;16.50;99.90;;;;;;5023885;28;20290;-52
2022/09/14 03:40:26;;;;;;;4.57;2.00;;;16.50;99.90;;;;;;5024641;28;20202;-52
2022/09/14 03:42:53;;;;;;;2.73;1.63;;;16.50;99.90;;;;;;5023057;28;20212;-51
2022/09/14 03:45:21;;;;;;;3.50;1.83;;;16.40;99.90;;;;;;5025217;28;20560;-52
2022/09/14 03:47:48;;;;;;;3.60;1.90;;;16.40;99.90;;;;;;5025315;28;20218;-52
2022/09/14 03:50:16;;;;;;;3.47;1.80;;;16.40;99.90;;;;;;5019938;28;20204;-52
2022/09/14 03:52:43;;;;;;;5.73;2.07;;;16.30;99.90;;;;;;5026484;28;20203;-53
2022/09/14 03:55:10;;;;;;;5.07;1.87;;;16.40;99.90;;;;;;5020291;28;20335;-53
2022/09/14 03:57:37;;;;;;;3.47;1.80;;;16.40;99.90;;;;;;5025808;28;20212;-53
2022/09/14 04:00:06;;;;;;;7.23;1.70;;;16.40;99.90;;;;;;5024967;28;20203;-53
2022/09/14 04:02:32;;;;;;;4.30;1.67;;;16.30;99.90;;;;;;5025101;28;20228;-53
2022/09/14 04:04:59;;;;;;;5.80;2.10;;;16.30;99.90;;;;;;5022412;28;20352;-52
2022/09/14 04:07:29;;;;;;;4.97;2.10;;;16.30;99.90;;;;;;5021219;28;20644;-52
2022/09/14 04:09:57;;;;;;;4.27;1.57;;;16.30;99.90;;;;;;5023482;28;20197;-53
2022/09/14 04:12:23;;;;;;;5.60;1.77;;;16.30;99.90;;;;;;5022014;28;20207;-51
2022/09/14 04:14:50;;;;;;;5.37;1.70;;;16.30;99.90;;;;;;5025498;28;20652;-53
2022/09/14 04:17:17;;;;;;;4.20;1.60;;;16.40;99.90;;;;;;5024116;28;20202;-52
2022/09/14 04:19:44;;;;;;;4.10;1.90;;;16.30;99.90;;;;;;5024344;28;20297;-52
2022/09/14 04:22:11;;;;;;;7.33;3.00;;;16.30;99.90;;;;;;5022952;28;20196;-53
2022/09/14 04:24:37;;;;;;;3.90;1.63;;;16.20;99.90;;;;;;5027415;28;20197;-51
2022/09/14 04:27:04;;;;;;;7.43;2.33;;;16.10;99.90;;;;;;5023382;28;20214;-53
2022/09/14 04:29:31;;;;;;;3.20;2.00;;;16.20;99.90;;;;;;5025823;28;20586;-52
2022/09/14 04:31:58;;;;;;;6.50;2.03;;;16.20;99.90;;;;;;5025640;28;20203;-53
2022/09/14 04:34:25;;;;;;;5.77;2.27;;;16.20;99.90;;;;;;5024391;28;20672;-53
2022/09/14 04:36:52;;;;;;;5.10;1.40;;;16.10;99.90;;;;;;5023601;28;20202;-53
2022/09/14 04:39:19;;;;;;;2.80;1.47;;;16.20;99.90;;;;;;5029119;28;20578;-53
2022/09/14 04:41:46;;;;;;;3.37;1.60;;;16.10;99.90;;;;;;5026761;28;20201;-53
2022/09/14 04:44:13;;;;;;;4.60;1.40;;;16.20;99.90;;;;;;5028600;28;20655;-53
2022/09/14 04:46:41;;;;;;;3.83;1.70;;;16.20;99.90;;;;;;5028290;28;20208;-53
2022/09/14 04:49:13;;;;;;;5.43;1.43;;;16.10;99.90;;;;;;5027971;28;20235;-52
2022/09/14 04:51:40;;;;;;;4.37;1.60;;;16.00;99.90;;;;;;5040749;28;20197;-55
2022/09/14 04:54:16;;;;;;;3.30;1.50;;;16.00;99.90;;;;;;5028031;28;20196;-53
2022/09/14 04:56:46;;;;;;;5.47;1.60;;;16.00;99.90;;;;;;5026576;28;20290;-53
2022/09/14 04:59:14;;;;;;;6.37;1.57;;;16.10;99.90;;;;;;5028651;28;20246;-53
2022/09/14 05:01:48;;;;;;;4.37;1.97;;;16.10;99.90;;;;;;5026536;28;20223;-53
2022/09/14 05:04:16;;;;;;;3.73;1.70;;;16.10;99.90;;;;;;5026926;28;20237;-52
2022/09/14 05:06:43;;;;;;;7.20;1.10;;;16.00;99.90;;;;;;5025861;28;20208;-52
2022/09/14 05:09:13;;;;;;;4.63;2.37;;;16.10;99.90;;;;;;5008203;28;20259;-53
2022/09/14 05:11:40;;;;;;;4.60;1.67;;;16.20;99.90;;;;;;5023970;28;20541;-52
2022/09/14 05:14:11;;;;;;;6.87;1.73;;;16.10;99.90;;;;;;5025312;28;20196;-52
2022/09/14 05:16:40;;;;;;;5.17;1.77;;;16.10;99.90;;;;;;5026254;28;20199;-53
2022/09/14 05:19:11;;;;;;;7.67;1.50;;;16.10;99.90;;;;;;5023709;28;20207;-52
2022/09/14 05:21:38;;;;;;;2.70;1.30;;;16.10;99.90;;;;;;5024461;28;20210;-51
2022/09/14 05:24:13;;;;;;;4.73;1.53;;;16.10;99.90;;;;;;5024059;28;20219;-56
2022/09/14 05:26:42;;;;;;;5.67;2.00;;;16.10;99.90;;;;;;5024354;28;20298;-54
2022/09/14 05:29:11;;;;;;;3.93;1.80;;;16.10;99.90;;;;;;5029155;28;20219;-51
2022/09/14 05:31:38;;;;;;;4.47;2.00;;;16.20;99.90;;;;;;5027460;28;20204;-51
2022/09/14 05:34:05;;;;;;;5.00;1.83;;;16.10;99.90;;;;;;5030447;28;20203;-51
2022/09/14 05:36:35;;;;;;;7.20;2.97;;;16.00;99.90;;;;;;5024953;28;20210;-51
2022/09/14 05:39:02;;;;;;;3.30;1.70;;;16.10;99.90;;;;;;5026643;28;20204;-51
2022/09/14 05:41:29;;;;;;;8.07;2.07;;;16.00;99.90;;;;;;5023621;28;20258;-52
2022/09/14 05:43:58;;;;;;;3.37;1.70;;;16.10;99.90;;;;;;5026956;28;20282;-52
2022/09/14 05:46:25;;;;;;;3.53;1.90;;;16.10;99.90;;;;;;5024751;28;20236;-52
2022/09/14 05:48:52;;;;;;;3.60;1.80;;;16.20;99.90;;;;;;5023130;28;20209;-52
2022/09/14 05:51:23;;;;;;;4.87;1.80;;;16.30;99.90;;;;;;5025768;28;20730;-52
2022/09/14 05:53:55;;;;;;;5.50;2.00;;;16.10;99.90;;;;;;4668173;28;10000575;-52
2022/09/14 05:56:24;;;;;;;4.33;1.57;;;16.10;99.90;;;;;;5014253;28;20211;-53
2022/09/14 05:58:51;;;;;;;3.67;1.60;;;16.00;99.90;;;;;;5023250;28;20396;-51
2022/09/14 06:01:20;;;;;;;5.03;1.93;;;16.00;99.90;;;;;;5020068;28;20228;-51
2022/09/14 06:03:48;;;;;;;5.47;2.10;;;16.00;99.90;;;;;;5024600;28;20240;-50
2022/09/14 06:06:17;;;;;;;4.97;1.83;;;16.10;99.90;;;;;;5019206;28;20286;-51
2022/09/14 06:08:44;;;;;;;4.47;1.50;;;16.20;99.90;;;;;;5019759;28;20684;-51
2022/09/14 06:11:15;;;;;;;6.67;2.03;;;16.20;99.90;;;;;;5020822;28;20259;-52
2022/09/14 06:13:42;;;;;;;4.80;1.77;;;16.30;99.90;;;;;;5022282;28;20286;-53
2022/09/14 06:16:15;;;;;;;6.60;2.10;;;16.20;99.90;;;;;;5022517;28;20199;-53
2022/09/14 06:18:43;;;;;;;6.03;2.10;;;16.10;99.90;;;;;;5023173;28;20193;-53
2022/09/14 06:21:15;;;;;;;5.40;2.00;;;16.10;99.90;;;;;;5026058;28;20209;-53
2022/09/14 06:23:43;;;;;;;6.03;1.77;;;16.20;99.90;;;;;;5028378;28;20686;-54
2022/09/14 06:26:11;;;;;;;5.47;2.07;;;16.10;99.90;;;;;;5019273;28;20318;-53
2022/09/14 06:28:38;;;;;;;5.00;2.10;;;16.10;99.90;;;;;;5023297;28;20219;-53
2022/09/14 06:31:06;;;;;;;5.03;1.77;;;16.20;99.90;;;;;;5020007;28;20208;-52
2022/09/14 06:33:34;;;;;;;4.83;2.13;;;16.20;99.90;;;;;;5025429;28;20208;-52
2022/09/14 06:36:08;;;;;;;4.77;2.03;;;16.10;99.90;;;;;;5024375;28;20189;-53
2022/09/14 06:38:35;;;;;;;3.40;1.67;;;16.10;99.90;;;;;;5024468;28;20652;-51
2022/09/14 06:41:04;;;;;;;6.90;2.10;;;16.10;99.90;;;;;;5021228;28;20648;-52
2022/09/14 06:43:39;;;;;;;5.13;1.90;;;16.20;99.90;;;;;;5024927;28;20206;-51
2022/09/14 06:46:20;;;;;;;8.77;2.47;;;16.10;99.90;;;;;;5035668;28;20234;-53
2022/09/14 06:48:54;;;;;;;6.87;2.43;;;16.10;99.90;;;;;;5022742;28;20749;-53
2022/09/14 06:51:21;;;;;;;4.53;1.53;;;16.10;99.90;;;;;;5037810;28;20216;-52
2022/09/14 06:53:49;;;;;;;4.13;1.90;;;16.20;99.90;;;;;;5023092;28;20199;-52
2022/09/14 06:56:17;;;;;;;4.77;2.07;;;16.10;99.90;;;;;;5020742;28;20199;-52
2022/09/14 06:58:44;;;;;;;4.20;1.83;;;15.90;99.90;;;;;;5015189;28;20632;-52
2022/09/14 07:01:13;;;;;;;5.83;2.00;;;16.00;99.90;;;;;;5023178;28;20231;-53
2022/09/14 07:03:42;;;;;;;5.33;1.80;;;16.10;99.90;;;;;;5015220;28;20236;-52
2022/09/14 07:06:19;;;;;;;3.43;1.50;;;16.10;99.90;;;;;;5021213;28;20616;-52
2022/09/14 07:08:47;;;;;;;7.00;2.00;;;15.90;99.90;;;;;;5038687;28;20956;-53
2022/09/14 07:11:17;;;;;;;3.63;1.93;;;16.00;99.90;;;;;;5026209;28;20200;-52
2022/09/14 07:13:44;;;;;;;3.43;1.93;;;16.10;99.90;;;;;;5028949;28;20691;-53
2022/09/14 07:16:12;;;;;;;5.13;1.93;;;16.10;99.90;;;;;;5025775;28;20207;-53
2022/09/14 07:18:39;;;;;;;6.53;1.77;;;16.00;99.90;;;;;;5025588;28;20648;-52
2022/09/14 07:21:14;;;;;;;5.13;2.00;;;16.00;99.90;;;;;;5022900;28;20208;-52
2022/09/14 07:23:43;;;;;;;9.00;2.03;;;16.10;99.90;;;;;;5027805;28;20581;-52
2022/09/14 07:26:13;;;;;;;5.20;1.90;;;16.10;99.90;;;;;;5023676;28;20209;-52
2022/09/14 07:28:41;;;;;;;4.47;1.73;;;16.10;99.90;;;;;;5042583;28;20590;-53
2022/09/14 07:31:18;;;;;;;8.00;2.33;;;16.20;99.90;;;;;;5034004;28;20224;-51
2022/09/14 07:36:51;;;;;;;4.67;2.40;;;16.10;99.90;;;;;;5026012;28;20206;-54
2022/09/14 07:39:18;;;;;;;5.73;2.73;;;16.10;99.90;;;;;;5047533;28;20368;-54
2022/09/14 07:41:45;;;;;;;9.63;3.27;;;16.20;99.90;;;;;;5031942;28;20223;-53
2022/09/14 07:44:14;;;;;;;6.70;2.70;;;16.20;99.90;;;;;;5032809;28;20300;-53
2022/09/14 07:46:43;;;;;;;6.37;2.80;;;16.10;99.90;;;;;;5032374;28;20208;-53
2022/09/14 07:49:10;;;;;;;5.07;3.93;;;16.10;99.90;;;;;;5032329;28;20299;-52
2022/09/14 07:51:38;;;;;;;5.57;3.30;;;16.10;99.90;;;;;;5029370;28;20199;-53
2022/09/14 07:54:07;;;;;;;5.50;2.90;;;16.10;99.90;;;;;;5034154;28;20198;-53
2022/09/14 07:56:34;;;;;;;6.30;3.10;;;16.10;99.90;;;;;;5032236;28;20246;-52
2022/09/14 07:59:01;;;;;;;5.87;2.90;;;16.10;99.90;;;;;;5032864;28;20256;-53
2022/09/14 08:01:48;;;;;;;5.97;3.60;;;16.10;99.90;;;;;;5032257;28;20293;-52
2022/09/14 08:04:16;;;;;;;7.60;2.80;;;16.10;99.90;;;;;;5031328;28;20587;-53
2022/09/14 08:06:42;;;;;;;4.50;3.30;;;16.10;99.90;;;;;;5030201;28;20219;-53
2022/09/14 08:09:09;;;;;;;3.77;2.60;;;16.20;99.90;;;;;;5033308;28;20734;-53
2022/09/14 08:11:36;;;;;;;5.87;3.47;;;16.20;99.90;;;;;;5031701;28;20238;-52
2022/09/14 08:14:05;;;;;;;8.73;3.37;;;16.10;99.90;;;;;;5031293;28;20257;-52
2022/09/14 08:16:33;;;;;;;6.17;3.57;;;16.20;99.90;;;;;;5030320;28;20285;-52
2022/09/14 08:19:06;;;;;;;5.03;3.83;;;16.10;99.90;;;;;;5029551;28;20203;-53
2022/09/14 08:21:34;;;;;;;6.77;3.10;;;16.10;99.90;;;;;;5030130;28;20200;-53
2022/09/14 08:24:03;;;;;;;6.93;3.30;;;16.00;99.90;;;;;;5033448;28;20274;-53
2022/09/14 08:26:30;;;;;;;5.40;3.40;;;16.10;99.90;;;;;;5033607;28;20212;-52
2022/09/14 08:29:01;;;;;;;8.80;3.30;;;16.10;99.90;;;;;;5031752;28;20231;-53
2022/09/14 08:31:28;;;;;;;8.40;3.47;;;16.20;99.90;;;;;;5030858;28;20670;-53
2022/09/14 08:34:01;;;;;;;6.83;3.50;;;16.10;99.90;;;;;;5027918;28;20207;-52
2022/09/14 08:36:32;;;;;;;6.60;2.80;;;16.10;99.90;;;;;;5043561;28;20279;-53
2022/09/14 08:39:00;;;;;;;8.27;3.47;;;16.10;99.90;;;;;;5027126;28;20222;-53
2022/09/14 08:41:36;;;;;;;4.70;3.33;;;16.20;99.90;;;;;;5024758;28;20207;-54
2022/09/14 08:44:18;;;;;;;6.77;3.63;;;16.20;99.90;;;;;;5031754;28;20203;-54
2022/09/14 08:47:01;;;;;;;7.13;3.83;;;16.30;99.90;;;;;;5030594;28;20591;-53
2022/09/14 08:49:43;;;;;;;7.20;3.50;;;16.20;99.90;;;;;;5030017;28;20211;-53
2022/09/14 08:52:13;;;;;;;6.90;4.00;;;16.20;99.90;;;;;;5032097;28;20212;-53
2022/09/14 08:54:40;;;;;;;8.40;3.70;;;16.30;99.90;;;;;;5030160;28;20225;-53
2022/09/14 08:57:23;;;;;;;5.47;3.67;;;16.20;99.90;;;;;;5027812;28;20200;-52
2022/09/14 09:00:12;;;;;;;9.40;4.27;;;16.20;99.90;;;;;;5029313;28;20211;-53
2022/09/14 09:02:48;;;;;;;8.97;4.60;;;16.10;99.90;;;;;;5028766;28;20228;-53
2022/09/14 09:05:36;;;;;;;5.13;4.00;;;16.10;99.90;;;;;;5031176;28;20508;-53
2022/09/14 09:08:29;;;;;;;5.13;4.30;;;16.20;99.90;;;;;;5026270;28;20286;-52
2022/09/14 09:10:58;;;;;;;7.13;4.30;;;16.20;99.90;;;;;;5030065;28;20204;-53
2022/09/14 09:13:30;;;;;;;7.43;4.40;;;16.20;99.90;;;;;;5031733;28;20199;-52
2022/09/14 09:16:00;;;;;;;9.10;4.63;;;16.10;99.90;;;;;;5030284;28;20255;-53
2022/09/14 09:18:46;;;;;;;10.00;4.43;;;16.10;99.90;;;;;;5030319;28;20557;-53
2022/09/14 09:21:18;;;;;;;8.17;3.93;;;16.20;99.90;;;;;;5022106;28;20199;-52
2022/09/14 09:23:45;;;;;;;8.83;3.90;;;16.30;99.90;;;;;;5018446;28;20605;-53
2022/09/14 09:26:26;;;;;;;8.37;4.07;;;16.30;99.90;;;;;;5025852;28;20202;-51
2022/09/14 09:28:59;;;;;;;7.57;3.70;;;16.20;99.90;;;;;;5030263;28;20569;-52
2022/09/14 09:31:36;;;;;;;4.77;3.77;;;16.20;99.90;;;;;;5029497;28;20201;-52
2022/09/14 09:34:05;;;;;;;8.67;3.60;;;16.10;99.90;;;;;;5028199;28;20200;-52
2022/09/14 09:36:40;;;;;;;5.37;4.00;;;16.10;99.90;;;;;;5027533;28;20213;-53
2022/09/14 09:39:07;;;;;;;8.97;4.37;;;16.20;99.90;;;;;;5030934;28;20200;-52
2022/09/14 09:41:51;;;;;;;7.13;4.20;;;16.30;99.90;;;;;;5028075;28;20208;-53
2022/09/14 09:44:19;;;;;;;7.10;4.57;;;16.30;99.90;;;;;;5023160;28;20197;-53
2022/09/14 09:46:57;;;;;;;9.60;4.47;;;16.20;99.90;;;;;;5026820;28;20488;-52
2022/09/14 09:49:27;;;;;;;5.53;3.70;;;16.30;99.90;;;;;;5025622;28;20216;-54
2022/09/14 09:51:54;;;;;;;6.47;3.83;;;16.30;99.90;;;;;;5029537;28;20214;-53
2022/09/14 09:54:23;;;;;;;7.93;4.23;;;16.30;99.90;;;;;;5028839;28;20252;-54
2022/09/14 09:56:54;;;;;;;8.90;3.70;;;16.20;99.90;;;;;;5029140;28;20660;-53
2022/09/14 09:59:43;;;;;;;5.63;3.40;;;16.30;99.90;;;;;;5029187;28;20630;-53
2022/09/14 10:02:30;;;;;;;9.17;3.83;;;16.20;99.90;;;;;;5028169;28;20314;-52
2022/09/14 10:05:00;;;;;;;5.77;4.03;;;16.10;99.90;;;;;;5028054;28;20237;-52
2022/09/14 10:07:29;;;;;;;8.23;3.73;;;16.30;99.90;;;;;;5027359;28;20196;-52
2022/09/14 10:10:10;;;;;;;6.03;3.47;;;16.10;99.90;;;;;;5030538;28;20216;-53
2022/09/14 10:12:44;;;;;;;8.20;4.60;;;16.20;99.90;;;;;;5028429;28;20620;-52
2022/09/14 10:15:18;;;;;;;4.80;4.37;;;16.20;99.90;;;;;;5024296;28;20203;-53
2022/09/14 10:18:12;;;;;;;7.03;3.70;;;16.10;99.90;;;;;;5026583;28;20909;-52
2022/09/14 10:21:04;;;;;;;6.17;3.33;;;16.30;99.90;;;;;;5018725;28;20590;-52
2022/09/14 10:23:37;;;;;;;7.70;3.73;;;16.30;99.90;;;;;;5025741;28;20212;-53
2022/09/14 10:26:12;;;;;;;5.00;3.40;;;16.40;99.90;;;;;;5027836;28;20611;-54
2022/09/14 10:28:45;;;;;;;6.27;3.40;;;16.30;99.90;;;;;;5026450;28;20246;-53
2022/09/14 10:31:16;;;;;;;10.07;3.93;;;16.40;99.90;;;;;;5025872;28;20311;-53
2022/09/14 10:33:45;;;;;;;5.30;3.53;;;16.40;99.90;;;;;;5027431;28;20284;-53
2022/09/14 10:36:28;;;;;;;6.03;3.60;;;16.40;99.90;;;;;;5025197;28;20196;-53
2022/09/14 10:39:22;;;;;;;6.03;3.30;;;16.40;99.90;;;;;;5026539;28;20288;-53
2022/09/14 10:42:01;;;;;;;6.43;2.77;;;16.60;99.90;;;;;;5020601;28;20208;-53
2022/09/14 10:44:59;;;;;;;4.80;2.67;;;16.60;99.90;;;;;;5022310;28;20196;-53
2022/09/14 10:47:29;;;;;;;5.13;2.83;;;16.50;99.90;;;;;;5023634;28;20639;-53
2022/09/14 10:50:26;;;;;;;5.13;2.70;;;16.50;99.90;;;;;;5021564;28;20214;-53
2022/09/14 10:53:12;;;;;;;5.60;2.57;;;16.50;99.90;;;;;;5027946;28;20287;-53
2022/09/14 10:55:47;;;;;;;6.80;2.87;;;16.50;99.90;;;;;;5023543;28;20207;-52
2022/09/14 10:58:39;;;;;;;7.30;2.90;;;16.30;99.90;;;;;;5026858;28;20195;-54
2022/09/14 11:01:19;;;;;;;6.40;3.00;;;16.40;99.90;;;;;;5018507;28;20287;-53
2022/09/14 11:03:59;;;;;;;4.83;2.73;;;16.30;99.90;;;;;;5023916;28;20238;-53
2022/09/14 11:06:54;;;;;;;4.80;2.73;;;16.50;99.90;;;;;;5042656;28;20659;-53
2022/09/14 11:09:40;;;;;;;4.23;3.27;;;16.50;99.90;;;;;;5028621;28;20694;-53
2022/09/14 11:12:39;;;;;;;5.90;2.93;;;16.60;99.90;;;;;;5029577;28;20223;-53
2022/09/14 11:15:09;;;;;;;4.43;2.60;;;16.50;99.90;;;;;;5028292;28;20193;-53
2022/09/14 11:17:51;;;;;;;8.40;3.17;;;16.50;99.90;;;;;;5027599;28;20813;-54
2022/09/14 11:20:29;;;;;;;6.07;3.00;;;16.50;99.90;;;;;;5029603;28;20204;-54
2022/09/14 11:23:02;;;;;;;4.63;3.20;;;16.60;99.90;;;;;;5023416;28;20211;-52
2022/09/14 11:25:58;;;;;;;6.40;2.50;;;16.60;99.90;;;;;;5026883;28;20199;-53
2022/09/14 11:28:43;;;;;;;5.30;2.70;;;16.30;99.90;;;;;;5023489;28;20276;-53
2022/09/14 11:31:17;;;;;;;5.17;2.50;;;16.60;99.90;;;;;;5027727;28;20579;-52
2022/09/14 11:33:52;;;;;;;5.40;2.67;;;16.60;99.90;;;;;;5027548;28;20207;-54
2022/09/14 11:36:48;;;;;;;4.97;2.23;;;16.60;99.90;;;;;;5027251;28;20200;-53
2022/09/14 11:39:29;;;;;;;3.10;2.20;;;16.60;99.90;;;;;;5021577;28;20195;-53
2022/09/14 11:42:14;;;;;;;6.87;2.10;;;16.60;99.90;;;;;;5018254;28;20363;-54
2022/09/14 11:44:43;;;;;;;3.10;2.07;;;16.50;99.90;;;;;;5019007;28;20742;-52
2022/09/14 11:47:13;;;;;;;3.03;1.70;;;16.50;99.90;;;;;;5025571;28;20197;-54
2022/09/14 11:50:05;;;;;;;4.07;2.07;;;16.40;99.90;;;;;;5027793;28;20221;-53
2022/09/14 11:53:00;;;;;;;4.13;2.23;;;16.50;99.90;;;;;;5019439;28;20209;-54
2022/09/14 11:55:31;;;;;;;3.83;1.93;;;16.60;99.90;;;;;;5027586;28;20689;-54
2022/09/14 11:58:31;;;;;;;6.23;2.70;;;16.50;99.90;;;;;;5025341;28;20630;-53
2022/09/14 12:01:43;;;;;;;4.13;2.57;;;16.50;99.90;;;;;;5018714;28;20232;-54
2022/09/14 12:04:57;;;;;;;5.50;2.97;;;16.50;99.90;;;;;;5024426;28;20238;-53
2022/09/14 12:08:04;;;;;;;4.23;2.73;;;16.50;99.90;;;;;;5030890;28;20242;-53
2022/09/14 12:11:18;;;;;;;4.77;2.57;;;16.50;99.90;;;;;;5028647;28;20698;-58
2022/09/14 12:14:53;;;;;;;3.87;2.37;;;16.60;99.90;;;;;;5029279;28;20208;-52
2022/09/14 12:17:40;;;;;;;5.60;2.70;;;16.50;99.90;;;;;;4963001;28;20573;-53
2022/09/14 12:20:41;;;;;;;5.67;2.90;;;16.50;99.90;;;;;;4965009;28;20305;-56
2022/09/14 12:23:36;;;;;;;4.63;2.67;;;16.50;99.90;;;;;;4970016;28;20724;-56
2022/09/14 12:27:05;;;;;;;4.90;2.83;;;16.50;99.90;;;;;;4956464;28;20220;-54
2022/09/14 12:30:12;;;;;;;5.27;2.87;;;16.40;99.90;;;;;;4858057;29;20263;-54
2022/09/14 12:32:49;;;;;;;6.03;3.07;;;16.50;99.90;;;;;;4898393;29;20297;-55
2022/09/14 12:35:39;;;;;;;4.93;2.63;;;16.50;99.90;;;;;;4911651;29;20204;-53
2022/09/14 12:38:52;;;;;;;5.57;3.23;;;16.50;99.90;;;;;;4912873;29;20200;-54
2022/09/14 12:42:10;;;;;;;3.93;3.20;;;16.60;99.90;;;;;;4890813;29;20204;-54
2022/09/14 12:45:12;;;;;;;6.33;3.10;;;16.60;99.90;;;;;;4911764;29;20219;-51
2022/09/14 12:51:57;;;;;;;6.10;2.90;;;16.70;99.90;;;;;;4909392;29;20236;-53
2022/09/14 12:55:25;;;;;;;7.57;4.50;;;16.50;99.90;;;;;;4913142;29;20219;-53
2022/09/14 12:58:31;;;;;;;6.47;3.40;;;16.50;99.90;;;;;;4871694;29;20205;-53
2022/09/14 13:01:48;;;;;;;;;;;;;;;;;;;;;
2022/09/14 13:04:44;;;;;;;6.53;3.53;;;16.50;99.90;;;;;;4924136;29;20240;-53
2022/09/14 13:07:31;;;;;;;;;;;;;;;;;;;;;
2022/09/14 13:10:48;;;;;;;5.70;3.47;;;16.60;99.90;;;;;;4946148;28;20332;-54
2022/09/14 13:13:37;;;;;;;4.03;2.93;;;16.60;99.90;;;;;;4950157;28;20214;-53
2022/09/14 13:16:07;;;;;;;4.33;3.10;;;16.60;99.90;;;;;;4935618;29;20734;-55
2022/09/14 13:18:36;;;;;;;6.17;3.00;;;16.50;99.90;;;;;;4950013;28;20213;-51
2022/09/14 13:21:22;;;;;;;4.17;3.47;;;16.60;99.90;;;;;;4949251;28;20203;-52
2022/09/14 13:24:41;;;;;;;6.37;3.57;;;16.60;99.90;;;;;;4951195;28;20207;-53
2022/09/14 13:27:30;;;;;;;8.23;3.57;;;16.70;99.90;;;;;;4942416;28;20219;-55
2022/09/14 13:30:06;;;;;;;6.70;3.10;;;16.50;99.90;;;;;;5021783;28;20226;-52
2022/09/14 13:32:42;;;;;;;6.80;3.83;;;16.50;99.90;;;;;;5028531;28;21180;-53
2022/09/14 13:35:55;;;;;;;5.10;3.40;;;16.50;99.90;;;;;;5026280;28;20231;-53
2022/09/14 13:38:41;;;;;;;6.43;3.03;;;16.70;99.90;;;;;;5041939;28;20658;-53